createdAt,value
2019-05-22T00:01:22.585Z,15.50
2019-05-22T00:04:10.340Z,15.50
2019-05-22T00:06:42.096Z,15.40
2019-05-22T00:09:19.010Z,15.40
2019-05-22T00:11:49.663Z,15.40
2019-05-22T00:14:19.325Z,15.40
2019-05-22T00:16:49.347Z,15.40
2019-05-22T00:19:19.626Z,15.40
2019-05-22T00:21:51.627Z,15.40
2019-05-22T00:24:19.665Z,15.40
2019-05-22T00:26:49.309Z,15.40
2019-05-22T00:29:18.324Z,15.40
2019-05-22T00:31:47.660Z,15.40
2019-05-22T00:34:16.821Z,15.30
2019-05-22T00:36:46.375Z,15.30
2019-05-22T00:39:16.193Z,15.30
2019-05-22T00:41:50.137Z,15.30
2019-05-22T00:44:18.716Z,15.30
2019-05-22T00:46:47.512Z,15.30
2019-05-22T00:49:17.720Z,15.30
2019-05-22T00:52:01.918Z,15.20
2019-05-22T00:54:46.790Z,15.20
2019-05-22T00:57:24.829Z,15.20
2019-05-22T00:59:55.776Z,15.20
2019-05-22T01:02:27.881Z,15.20
2019-05-22T01:04:57.640Z,15.20
2019-05-22T01:07:30.070Z,15.20
2019-05-22T01:09:58.957Z,15.20
2019-05-22T01:12:31.572Z,15.10
2019-05-22T01:15:03.011Z,15.10
2019-05-22T01:17:35.987Z,15.10
2019-05-22T01:20:09.962Z,15.10
2019-05-22T01:22:39.071Z,15.10
2019-05-22T01:25:09.917Z,15.10
2019-05-22T01:27:38.461Z,15.10
2019-05-22T01:30:10.023Z,15.20
2019-05-22T01:32:48.940Z,15.10
2019-05-22T01:35:19.375Z,15.10
2019-05-22T01:37:47.501Z,15.10
2019-05-22T01:40:28.829Z,15.10
2019-05-22T01:42:59.668Z,15.10
2019-05-22T01:45:27.832Z,15.10
2019-05-22T01:48:02.515Z,15.10
2019-05-22T01:50:47.813Z,15.10
2019-05-22T01:53:20.844Z,15.10
2019-05-22T01:55:51.723Z,15.10
2019-05-22T01:58:21.317Z,15.10
2019-05-22T02:00:52.206Z,15.10
2019-05-22T02:03:23.421Z,15.10
2019-05-22T02:05:51.962Z,15.10
2019-05-22T02:08:21.817Z,15.10
2019-05-22T02:10:52.009Z,15.10
2019-05-22T02:13:28.070Z,15.20
2019-05-22T02:15:56.265Z,15.10
2019-05-22T02:18:24.909Z,15.10
2019-05-22T02:20:53.626Z,15.10
2019-05-22T02:23:21.508Z,15.10
2019-05-22T02:25:50.621Z,15.10
2019-05-22T02:28:20.623Z,15.10
2019-05-22T02:30:48.984Z,15.10
2019-05-22T02:33:18.249Z,15.10
2019-05-22T02:35:46.918Z,15.10
2019-05-22T02:38:16.361Z,15.10
2019-05-22T02:40:46.478Z,15.10
2019-05-22T02:43:15.782Z,15.10
2019-05-22T02:45:44.818Z,15.10
2019-05-22T02:48:13.413Z,15.10
2019-05-22T02:50:42.017Z,15.20
2019-05-22T02:53:12.647Z,15.20
2019-05-22T02:55:41.297Z,15.20
2019-05-22T02:58:10.605Z,15.20
2019-05-22T03:00:59.880Z,15.20
2019-05-22T03:03:28.463Z,15.20
2019-05-22T03:05:58.296Z,15.10
2019-05-22T03:08:34.958Z,15.10
2019-05-22T03:11:04.001Z,15.10
2019-05-22T03:13:59.264Z,15.20
2019-05-22T03:16:35.497Z,15.20
2019-05-22T03:19:09.092Z,15.20
2019-05-22T03:21:36.013Z,15.10
2019-05-22T03:24:04.572Z,15.20
2019-05-22T03:26:46.269Z,15.20
2019-05-22T03:29:14.952Z,15.20
2019-05-22T03:31:43.654Z,15.10
2019-05-22T03:34:12.947Z,15.20
2019-05-22T03:36:41.434Z,15.20
2019-05-22T03:39:10.663Z,15.10
2019-05-22T03:41:40.728Z,15.10
2019-05-22T03:44:10.557Z,15.10
2019-05-22T03:46:43.921Z,15.20
2019-05-22T03:49:29.173Z,15.10
2019-05-22T03:51:47.915Z,15.10
2019-05-22T03:54:15.873Z,15.10
2019-05-22T03:56:44.148Z,15.10
2019-05-22T03:59:13.075Z,15.10
2019-05-22T04:01:42.851Z,15.10
2019-05-22T04:04:12.462Z,15.10
2019-05-22T04:06:40.889Z,15.10
2019-05-22T04:09:19.823Z,15.10
2019-05-22T04:11:48.199Z,15.10
2019-05-22T04:14:19.392Z,15.10
2019-05-22T04:16:48.521Z,15.10
2019-05-22T04:19:16.529Z,15.10
2019-05-22T04:21:45.450Z,15.10
2019-05-22T04:24:13.905Z,15.10
2019-05-22T04:26:42.476Z,15.10
2019-05-22T04:29:11.255Z,15.10
2019-05-22T04:31:46.745Z,15.10
2019-05-22T04:34:14.842Z,15.10
2019-05-22T04:36:43.159Z,15.10
2019-05-22T04:39:19.960Z,15.10
2019-05-22T04:41:49.356Z,15.10
2019-05-22T04:44:17.341Z,15.20
2019-05-22T04:46:45.349Z,15.10
2019-05-22T04:49:13.797Z,15.10
2019-05-22T04:51:41.852Z,15.20
2019-05-22T04:54:10.327Z,15.20
2019-05-22T04:56:38.353Z,15.20
2019-05-22T04:59:06.267Z,15.20
2019-05-22T05:01:34.515Z,15.20
2019-05-22T05:04:03.420Z,15.20
2019-05-22T05:06:33.258Z,15.20
2019-05-22T05:09:01.250Z,15.20
2019-05-22T05:11:29.482Z,15.20
2019-05-22T05:13:57.974Z,15.20
2019-05-22T05:16:25.865Z,15.20
2019-05-22T05:18:53.962Z,15.30
2019-05-22T05:21:23.272Z,15.30
2019-05-22T05:23:51.713Z,15.30
2019-05-22T05:26:20.122Z,15.20
2019-05-22T05:28:48.546Z,15.30
2019-05-22T05:31:16.980Z,15.30
2019-05-22T05:34:09.761Z,15.30
2019-05-22T05:36:39.485Z,15.30
2019-05-22T05:39:14.313Z,15.30
2019-05-22T05:41:42.335Z,15.40
2019-05-22T05:44:10.591Z,15.30
2019-05-22T05:46:38.776Z,15.40
2019-05-22T05:49:08.244Z,15.40
2019-05-22T05:51:39.976Z,15.40
2019-05-22T05:54:15.321Z,15.40
2019-05-22T05:56:50.820Z,15.50
2019-05-22T05:59:19.933Z,15.50
2019-05-22T06:01:57.918Z,15.50
2019-05-22T06:04:37.973Z,15.50
2019-05-22T06:07:19.517Z,15.50
2019-05-22T06:10:08.501Z,15.50
2019-05-22T06:12:36.755Z,15.50
2019-05-22T06:15:05.814Z,15.50
2019-05-22T06:18:10.438Z,15.60
2019-05-22T06:20:40.861Z,15.60
2019-05-22T06:23:51.885Z,15.60
2019-05-22T06:26:49.478Z,15.60
2019-05-22T06:29:19.504Z,15.60
2019-05-22T06:32:34.161Z,15.70
2019-05-22T06:35:03.081Z,15.70
2019-05-22T06:37:38.482Z,15.70
2019-05-22T06:40:08.897Z,15.70
2019-05-22T06:42:40.979Z,15.70
2019-05-22T06:45:10.261Z,15.70
2019-05-22T06:47:38.097Z,15.80
2019-05-22T06:50:06.627Z,15.70
2019-05-22T06:52:34.657Z,15.70
2019-05-22T06:55:03.222Z,15.70
2019-05-22T06:57:33.945Z,15.80
2019-05-22T07:00:14.747Z,15.80
2019-05-22T07:02:41.417Z,15.80
2019-05-22T07:05:10.494Z,15.90
2019-05-22T07:07:38.449Z,15.90
2019-05-22T07:10:09.326Z,15.90
2019-05-22T07:12:37.488Z,16.00
2019-05-22T07:15:43.441Z,16.00
2019-05-22T07:18:13.460Z,16.00
2019-05-22T07:20:44.224Z,16.00
2019-05-22T07:23:13.331Z,16.10
2019-05-22T07:25:43.986Z,16.10
2019-05-22T07:28:12.915Z,16.20
2019-05-22T07:30:40.924Z,16.20
2019-05-22T07:33:09.342Z,16.20
2019-05-22T07:35:56.176Z,16.30
2019-05-22T07:38:07.516Z,16.30
2019-05-22T07:40:37.107Z,16.30
2019-05-22T07:43:05.884Z,16.30
2019-05-22T07:45:36.001Z,16.40
2019-05-22T07:48:05.162Z,16.40
2019-05-22T07:50:36.018Z,16.40
2019-05-22T07:53:04.691Z,16.40
2019-05-22T07:55:33.671Z,16.50
2019-05-22T07:58:08.311Z,16.50
2019-05-22T08:00:36.642Z,16.40
2019-05-22T08:03:05.343Z,16.40
2019-05-22T08:05:35.568Z,16.40
2019-05-22T08:08:03.841Z,16.50
2019-05-22T08:10:31.949Z,16.40
2019-05-22T08:13:00.678Z,16.50
2019-05-22T08:15:29.332Z,16.50
2019-05-22T08:17:57.281Z,16.50
2019-05-22T08:20:26.024Z,16.50
2019-05-22T08:22:56.361Z,16.50
2019-05-22T08:25:24.689Z,16.50
2019-05-22T08:27:54.135Z,16.50
2019-05-22T08:30:22.553Z,16.50
2019-05-22T08:32:51.558Z,16.50
2019-05-22T08:35:19.820Z,16.50
2019-05-22T08:37:49.398Z,16.50
2019-05-22T08:40:18.424Z,16.50
2019-05-22T08:42:47.687Z,16.50
2019-05-22T08:45:16.784Z,16.50
2019-05-22T08:47:45.608Z,16.50
2019-05-22T08:50:15.574Z,16.60
2019-05-22T08:52:44.410Z,16.50
2019-05-22T08:55:13.571Z,16.60
2019-05-22T08:57:42.669Z,16.60
2019-05-22T09:00:13.923Z,16.60
2019-05-22T09:02:42.323Z,16.70
2019-05-22T09:05:10.592Z,16.70
2019-05-22T09:07:39.271Z,16.70
2019-05-22T09:10:09.386Z,16.70
2019-05-22T09:12:37.886Z,16.80
2019-05-22T09:15:36.799Z,16.80
2019-05-22T09:18:04.587Z,16.80
2019-05-22T09:20:48.216Z,16.90
2019-05-22T09:23:04.030Z,16.90
2019-05-22T09:25:32.493Z,17.00
2019-05-22T09:28:00.552Z,17.10
2019-05-22T09:30:28.945Z,17.10
2019-05-22T09:32:57.589Z,17.20
2019-05-22T09:35:26.155Z,17.20
2019-05-22T09:37:54.168Z,17.20
2019-05-22T09:40:22.281Z,17.30
2019-05-22T09:42:50.527Z,17.20
2019-05-22T09:45:19.428Z,17.30
2019-05-22T09:47:47.601Z,17.30
2019-05-22T09:50:16.782Z,17.30
2019-05-22T09:52:56.969Z,17.30
2019-05-22T09:55:16.896Z,17.40
2019-05-22T09:57:45.265Z,17.40
2019-05-22T10:00:15.456Z,17.40
2019-05-22T10:02:43.756Z,17.50
2019-05-22T10:05:13.899Z,17.50
2019-05-22T10:07:57.797Z,17.60
2019-05-22T10:10:12.700Z,17.60
2019-05-22T10:12:40.947Z,17.70
2019-05-22T10:15:32.527Z,17.70
2019-05-22T10:18:00.858Z,17.80
2019-05-22T10:20:29.145Z,17.80
2019-05-22T10:23:12.562Z,17.90
2019-05-22T10:25:27.673Z,17.90
2019-05-22T10:27:59.008Z,18.00
2019-05-22T10:30:26.784Z,18.00
2019-05-22T10:32:54.859Z,18.00
2019-05-22T10:35:24.818Z,18.10
2019-05-22T10:37:54.525Z,18.10
2019-05-22T10:40:23.750Z,18.10
2019-05-22T10:42:51.873Z,18.10
2019-05-22T10:45:20.527Z,18.10
2019-05-22T10:47:48.920Z,18.20
2019-05-22T10:50:17.579Z,18.20
2019-05-22T10:52:45.976Z,18.20
2019-05-22T10:55:16.368Z,18.20
2019-05-22T10:57:44.940Z,18.20
2019-05-22T11:00:15.575Z,18.30
2019-05-22T11:02:44.230Z,18.30
2019-05-22T11:05:12.565Z,18.30
2019-05-22T11:07:41.102Z,18.40
2019-05-22T11:10:10.497Z,18.30
2019-05-22T11:12:39.264Z,18.30
2019-05-22T11:15:38.632Z,18.40
2019-05-22T11:18:06.640Z,18.40
2019-05-22T11:20:35.673Z,18.40
2019-05-22T11:23:04.955Z,18.40
2019-05-22T11:25:33.273Z,18.40
2019-05-22T11:28:01.481Z,18.40
2019-05-22T11:30:31.413Z,18.40
2019-05-22T11:33:00.427Z,18.50
2019-05-22T11:35:28.788Z,18.50
2019-05-22T11:37:56.835Z,18.60
2019-05-22T11:40:25.481Z,18.70
2019-05-22T11:42:53.707Z,18.70
2019-05-22T11:45:22.289Z,18.70
2019-05-22T11:47:51.007Z,18.70
2019-05-22T11:50:19.221Z,18.80
2019-05-22T11:52:47.254Z,18.90
2019-05-22T11:55:15.594Z,18.90
2019-05-22T11:57:44.789Z,18.90
2019-05-22T12:00:14.373Z,18.90
2019-05-22T12:02:43.415Z,18.90
2019-05-22T12:05:12.713Z,18.90
2019-05-22T12:07:41.851Z,19.00
2019-05-22T12:10:10.421Z,19.00
2019-05-22T12:12:38.373Z,19.00
2019-05-22T12:15:40.134Z,19.00
2019-05-22T12:18:08.244Z,19.10
2019-05-22T12:20:36.460Z,19.10
2019-05-22T12:23:05.266Z,19.20
2019-05-22T12:25:33.410Z,19.20
2019-05-22T12:28:01.372Z,19.30
2019-05-22T12:30:31.042Z,19.30
2019-05-22T12:32:59.860Z,19.30
2019-05-22T12:35:28.819Z,19.40
2019-05-22T12:37:58.969Z,19.40
2019-05-22T12:40:31.646Z,19.50
2019-05-22T12:43:00.474Z,19.50
2019-05-22T12:45:29.450Z,19.60
2019-05-22T12:47:58.631Z,19.70
2019-05-22T12:50:29.504Z,19.90
2019-05-22T12:52:58.453Z,20.00
2019-05-22T12:55:26.784Z,20.20
2019-05-22T12:57:55.159Z,20.20
2019-05-22T13:00:24.539Z,20.40
2019-05-22T13:02:53.383Z,20.50
2019-05-22T13:05:22.567Z,20.60
2019-05-22T13:07:51.100Z,20.70
2019-05-22T13:10:20.988Z,20.60
2019-05-22T13:12:49.194Z,20.70
2019-05-22T13:16:07.290Z,20.70
2019-05-22T13:18:35.241Z,20.70
2019-05-22T13:21:05.493Z,20.80
2019-05-22T13:23:38.988Z,20.80
2019-05-22T13:26:07.932Z,20.80
2019-05-22T13:28:38.143Z,20.80
2019-05-22T13:31:06.780Z,20.70
2019-05-22T13:33:37.902Z,20.70
2019-05-22T13:36:07.238Z,20.70
2019-05-22T13:38:35.594Z,20.60
2019-05-22T13:41:04.061Z,20.70
2019-05-22T13:43:32.870Z,20.60
2019-05-22T13:46:00.891Z,20.70
2019-05-22T13:48:29.023Z,20.70
2019-05-22T13:50:58.937Z,20.70
2019-05-22T13:53:28.573Z,20.70
2019-05-22T13:55:57.199Z,20.80
2019-05-22T13:58:25.876Z,20.80
2019-05-22T14:00:54.152Z,20.80
2019-05-22T14:03:23.592Z,20.80
2019-05-22T14:05:53.747Z,20.80
2019-05-22T14:08:22.427Z,20.80
2019-05-22T14:10:51.141Z,20.80
2019-05-22T14:13:39.910Z,20.80
2019-05-22T14:16:08.358Z,20.80
2019-05-22T14:18:36.720Z,20.80
2019-05-22T14:21:04.972Z,20.80
2019-05-22T14:23:33.512Z,20.80
2019-05-22T14:26:01.447Z,20.70
2019-05-22T14:28:29.975Z,20.70
2019-05-22T14:30:57.972Z,20.60
2019-05-22T14:33:28.214Z,20.60
2019-05-22T14:35:56.619Z,20.60
2019-05-22T14:38:25.981Z,20.60
2019-05-22T14:40:54.055Z,20.60
2019-05-22T14:43:22.142Z,20.60
2019-05-22T14:45:50.200Z,20.60
2019-05-22T14:48:18.633Z,20.60
2019-05-22T14:50:46.641Z,20.60
2019-05-22T14:53:15.944Z,20.60
2019-05-22T14:55:44.044Z,20.60
2019-05-22T14:58:13.837Z,20.60
2019-05-22T15:00:42.711Z,20.60
2019-05-22T15:03:11.024Z,20.60
2019-05-22T15:05:39.114Z,20.70
2019-05-22T15:08:07.438Z,20.70
2019-05-22T15:10:36.812Z,20.70
2019-05-22T15:13:05.274Z,20.60
2019-05-22T15:15:34.662Z,20.60
2019-05-22T15:18:02.653Z,20.50
2019-05-22T15:20:37.171Z,20.50
2019-05-22T15:23:06.198Z,20.50
2019-05-22T15:25:34.573Z,20.50
2019-05-22T15:28:02.758Z,20.50
2019-05-22T15:30:30.888Z,20.40
2019-05-22T15:32:58.849Z,20.40
2019-05-22T15:35:27.159Z,20.40
2019-05-22T15:37:55.305Z,20.40
2019-05-22T15:40:24.827Z,20.30
2019-05-22T15:42:53.273Z,20.30
2019-05-22T15:45:24.753Z,20.30
2019-05-22T15:47:56.717Z,20.30
2019-05-22T15:50:27.277Z,20.30
2019-05-22T15:52:59.796Z,20.20
2019-05-22T15:55:30.765Z,20.20
2019-05-22T15:57:59.488Z,20.20
2019-05-22T16:00:31.945Z,20.20
2019-05-22T16:03:07.442Z,20.20
2019-05-22T16:05:36.031Z,20.20
2019-05-22T16:08:06.551Z,20.20
2019-05-22T16:10:36.593Z,20.20
2019-05-22T16:13:05.453Z,20.20
2019-05-22T16:16:15.547Z,20.10
2019-05-22T16:18:45.203Z,20.10
2019-05-22T16:21:13.507Z,20.10
2019-05-22T16:23:42.389Z,20.10
2019-05-22T16:26:12.045Z,20.10
2019-05-22T16:28:41.345Z,20.10
2019-05-22T16:31:09.978Z,20.10
2019-05-22T16:33:40.434Z,20.00
2019-05-22T16:36:09.291Z,20.00
2019-05-22T16:38:38.712Z,20.00
2019-05-22T16:41:07.484Z,20.00
2019-05-22T16:43:49.039Z,20.00
2019-05-22T16:46:08.818Z,19.90
2019-05-22T16:48:37.504Z,19.90
2019-05-22T16:51:06.925Z,19.90
2019-05-22T16:53:35.833Z,19.90
2019-05-22T16:56:04.911Z,19.90
2019-05-22T16:58:33.538Z,19.90
2019-05-22T17:01:01.972Z,19.90
2019-05-22T17:03:30.699Z,19.80
2019-05-22T17:05:58.669Z,19.80
2019-05-22T17:08:28.516Z,19.80
2019-05-22T17:10:58.164Z,19.80
2019-05-22T17:13:29.049Z,19.80
2019-05-22T17:16:44.311Z,19.70
2019-05-22T17:19:25.738Z,19.70
2019-05-22T17:21:42.551Z,19.70
2019-05-22T17:24:12.189Z,19.70
2019-05-22T17:26:40.520Z,19.60
2019-05-22T17:29:09.737Z,19.60
2019-05-22T17:31:37.765Z,19.60
2019-05-22T17:34:09.320Z,19.60
2019-05-22T17:36:38.008Z,19.50
2019-05-22T17:39:09.195Z,19.60
2019-05-22T17:41:39.194Z,19.50
2019-05-22T17:44:08.939Z,19.60
2019-05-22T17:46:38.818Z,19.50
2019-05-22T17:49:06.932Z,19.50
2019-05-22T17:51:35.212Z,19.50
2019-05-22T17:54:04.176Z,19.50
2019-05-22T17:56:32.184Z,19.50
2019-05-22T17:59:00.315Z,19.40
2019-05-22T18:01:28.686Z,19.40
2019-05-22T18:03:56.855Z,19.40
2019-05-22T18:06:25.782Z,19.30
2019-05-22T18:08:53.965Z,19.30
2019-05-22T18:11:25.935Z,19.30
2019-05-22T18:13:58.949Z,19.20
2019-05-22T18:16:49.075Z,19.20
2019-05-22T18:19:17.815Z,19.20
2019-05-22T18:21:45.939Z,19.10
2019-05-22T18:24:14.397Z,19.10
2019-05-22T18:26:42.736Z,19.10
2019-05-22T18:29:10.821Z,19.10
2019-05-22T18:31:39.560Z,19.10
2019-05-22T18:34:07.714Z,19.10
2019-05-22T18:36:35.889Z,19.00
2019-05-22T18:39:06.146Z,18.90
2019-05-22T18:41:34.167Z,18.90
2019-05-22T18:44:03.502Z,18.90
2019-05-22T18:46:32.401Z,18.90
2019-05-22T18:49:00.428Z,18.80
2019-05-22T18:51:28.934Z,18.80
2019-05-22T18:53:57.389Z,18.70
2019-05-22T18:56:26.125Z,18.70
2019-05-22T18:58:54.607Z,18.70
2019-05-22T19:01:23.306Z,18.70
2019-05-22T19:03:51.579Z,18.70
2019-05-22T19:06:29.652Z,18.70
2019-05-22T19:08:49.928Z,18.60
2019-05-22T19:11:25.246Z,18.60
2019-05-22T19:13:53.762Z,18.50
2019-05-22T19:17:10.264Z,18.50
2019-05-22T19:19:36.411Z,18.50
2019-05-22T19:22:04.405Z,18.50
2019-05-22T19:24:32.587Z,18.40
2019-05-22T19:27:00.642Z,18.40
2019-05-22T19:29:28.941Z,18.40
2019-05-22T19:32:08.628Z,18.40
2019-05-22T19:34:37.108Z,18.30
2019-05-22T19:37:05.422Z,18.30
2019-05-22T19:39:34.280Z,18.20
2019-05-22T19:42:05.335Z,18.20
2019-05-22T19:44:32.885Z,18.20
2019-05-22T19:47:01.139Z,18.20
2019-05-22T19:49:29.515Z,18.20
2019-05-22T19:51:57.995Z,18.20
2019-05-22T19:54:26.345Z,18.20
2019-05-22T19:56:54.309Z,18.10
2019-05-22T19:59:23.110Z,18.10
2019-05-22T20:01:52.038Z,18.10
2019-05-22T20:04:20.293Z,18.10
2019-05-22T20:06:48.363Z,18.00
2019-05-22T20:09:18.600Z,18.00
2019-05-22T20:11:46.583Z,18.00
2019-05-22T20:14:34.626Z,18.00
2019-05-22T20:17:54.121Z,18.00
2019-05-22T20:20:23.830Z,17.90
2019-05-22T20:22:52.463Z,17.90
2019-05-22T20:25:36.743Z,17.90
2019-05-22T20:28:49.793Z,17.90
2019-05-22T20:31:18.374Z,17.90
2019-05-22T20:33:46.484Z,17.90
2019-05-22T20:36:14.726Z,17.90
2019-05-22T20:38:43.436Z,17.90
2019-05-22T20:41:12.397Z,17.90
2019-05-22T20:43:41.613Z,17.90
2019-05-22T20:46:10.707Z,17.80
2019-05-22T20:48:40.206Z,17.80
2019-05-22T20:51:11.113Z,17.80
2019-05-22T20:53:53.628Z,17.80
2019-05-22T20:56:12.484Z,17.80
2019-05-22T20:58:42.648Z,17.70
2019-05-22T21:01:12.212Z,17.70
2019-05-22T21:03:40.251Z,17.70
2019-05-22T21:06:12.669Z,17.70
2019-05-22T21:08:43.683Z,17.80
2019-05-22T21:11:20.179Z,17.80
2019-05-22T21:13:48.413Z,17.70
2019-05-22T21:16:50.351Z,17.60
2019-05-22T21:19:16.989Z,17.60
2019-05-22T21:21:45.843Z,17.60
2019-05-22T21:24:14.580Z,17.60
2019-05-22T21:26:43.477Z,17.70
2019-05-22T21:29:11.778Z,17.60
2019-05-22T21:31:42.300Z,17.60
2019-05-22T21:34:11.040Z,17.60
2019-05-22T21:36:38.999Z,17.60
2019-05-22T21:39:11.367Z,17.60
2019-05-22T21:41:41.965Z,17.60
2019-05-22T21:44:10.141Z,17.60
2019-05-22T21:46:38.757Z,17.50
2019-05-22T21:49:08.370Z,17.60
2019-05-22T21:51:36.992Z,17.60
2019-05-22T21:54:08.048Z,17.50
2019-05-22T21:56:37.152Z,17.50
2019-05-22T21:59:06.775Z,17.50
2019-05-22T22:01:50.764Z,17.50
2019-05-22T22:04:32.002Z,17.50
2019-05-22T22:07:01.216Z,17.50
2019-05-22T22:09:30.092Z,17.50
2019-05-22T22:11:58.132Z,17.50
2019-05-22T22:14:26.328Z,17.40
2019-05-22T22:16:55.922Z,17.40
2019-05-22T22:19:24.971Z,17.40
2019-05-22T22:21:54.301Z,17.40
2019-05-22T22:24:22.752Z,17.40
2019-05-22T22:26:51.186Z,17.40
2019-05-22T22:29:19.439Z,17.40
2019-05-22T22:31:48.023Z,17.40
2019-05-22T22:34:27.897Z,17.40
2019-05-22T22:36:58.166Z,17.40
2019-05-22T22:39:26.862Z,17.40
2019-05-22T22:41:57.630Z,17.40
2019-05-22T22:44:25.749Z,17.40
2019-05-22T22:46:55.643Z,17.40
2019-05-22T22:49:27.414Z,17.40
2019-05-22T22:51:55.723Z,17.40
2019-05-22T22:54:24.302Z,17.40
2019-05-22T22:56:52.405Z,17.40
2019-05-22T22:59:20.810Z,17.40
2019-05-22T23:01:53.183Z,17.40
2019-05-22T23:04:23.504Z,17.40
2019-05-22T23:06:53.411Z,17.40
2019-05-22T23:09:22.996Z,17.30
2019-05-22T23:11:51.580Z,17.30
2019-05-22T23:14:22.412Z,17.20
2019-05-22T23:16:51.429Z,17.20
2019-05-22T23:19:35.293Z,17.30
2019-05-22T23:22:07.440Z,17.30
2019-05-22T23:24:37.417Z,17.20
2019-05-22T23:27:06.354Z,17.20
2019-05-22T23:29:35.695Z,17.20
2019-05-22T23:32:05.997Z,17.20
2019-05-22T23:34:34.755Z,17.20
2019-05-22T23:37:03.289Z,17.10
2019-05-22T23:39:34.368Z,17.10
2019-05-22T23:42:09.616Z,17.10
2019-05-22T23:44:39.322Z,17.10
2019-05-22T23:47:08.532Z,17.00
2019-05-22T23:49:37.614Z,17.00
2019-05-22T23:52:06.307Z,17.00
2019-05-22T23:54:35.478Z,17.00
2019-05-22T23:57:04.119Z,16.90
2019-05-22T23:59:35.725Z,17.00
